Time;durP1;ratioP1;P1;durP2;ratioP2;P2;SDS_P1;SDS_P2;PMS_P1;PMS_P2;Temp;Humidity;BMP_temperature;BMP_pressure;BME280_temperature;BME280_humidity;BME280_pressure;Samples;Min_cycle;Max_cycle;Signal;HPM_P1;HPM_P2
2021/11/25 00:00:26;;;;;;;15.60;10.47;;;;;;;2.85;100.00;102449.75;5133519;27;20595;-69
2021/11/25 00:02:52;;;;;;;16.23;10.83;;;;;;;2.89;100.00;102451.47;5134444;27;20189;-70
2021/11/25 00:05:18;;;;;;;17.47;10.97;;;;;;;2.89;100.00;102448.88;5134427;27;20637;-69
2021/11/25 00:07:44;;;;;;;21.30;13.20;;;;;;;2.88;100.00;102448.88;5134396;27;20158;-70
2021/11/25 00:10:10;;;;;;;18.80;10.70;;;;;;;2.82;100.00;102452.38;5133852;27;20155;-70
2021/11/25 00:12:37;;;;;;;17.07;10.57;;;;;;;2.84;100.00;102453.22;5132978;27;20217;-65
2021/11/25 00:15:05;;;;;;;17.03;11.80;;;;;;;2.75;100.00;102450.69;5133720;27;20580;-66
2021/11/25 00:17:30;;;;;;;25.93;11.10;;;;;;;2.80;100.00;102448.94;5133397;27;20408;-64
2021/11/25 00:19:56;;;;;;;15.10;6.60;;;;;;;2.82;100.00;102447.19;5134103;27;20534;-66
2021/11/25 00:22:21;;;;;;;22.33;11.03;;;;;;;2.71;100.00;102451.56;5133915;27;20165;-70
2021/11/25 00:24:47;;;;;;;19.60;9.03;;;;;;;2.69;100.00;102450.72;5133802;27;20170;-67
2021/11/25 00:27:12;;;;;;;16.73;8.87;;;;;;;2.62;100.00;102451.63;5134146;27;20161;-64
2021/11/25 00:29:38;;;;;;;15.07;7.60;;;;;;;2.68;100.00;102451.59;5133285;27;20171;-67
2021/11/25 00:32:05;;;;;;;17.30;10.37;;;;;;;2.63;100.00;102446.44;5133201;27;20189;-66
2021/11/25 00:34:31;;;;;;;17.83;9.90;;;;;;;2.62;100.00;102443.84;5133536;27;20925;-66
2021/11/25 00:36:56;;;;;;;13.50;7.70;;;;;;;2.64;100.00;102444.69;5132875;27;20964;-67
2021/11/25 00:39:22;;;;;;;15.17;9.10;;;;;;;2.55;100.00;102435.25;5133418;27;20235;-65
2021/11/25 00:41:48;;;;;;;17.50;9.00;;;;;;;2.55;100.00;102437.84;5133699;27;20166;-64
2021/11/25 00:44:15;;;;;;;17.03;10.33;;;;;;;2.49;100.00;102438.75;5136171;27;20626;-67
2021/11/25 00:46:41;;;;;;;18.97;11.27;;;;;;;2.48;100.00;102437.00;5133347;27;20416;-65
2021/11/25 00:49:07;;;;;;;15.63;8.80;;;;;;;2.52;100.00;102439.59;5133569;27;20526;-64
2021/11/25 00:51:32;;;;;;;22.93;9.77;;;;;;;2.53;100.00;102437.00;5149585;27;20193;-64
2021/11/25 00:53:58;;;;;;;14.70;8.43;;;;;;;2.47;100.00;102437.03;5135315;27;20226;-65
2021/11/25 00:56:23;;;;;;;18.13;10.33;;;;;;;2.40;100.00;102437.91;5133284;27;20639;-68
2021/11/25 00:58:49;;;;;;;16.97;10.23;;;;;;;2.38;100.00;102435.34;5153688;27;20173;-68
2021/11/25 01:01:15;;;;;;;19.30;11.17;;;;;;;2.40;100.00;102431.00;5136385;27;20170;-69
2021/11/25 01:03:41;;;;;;;18.00;11.17;;;;;;;2.41;100.00;102435.31;5115142;27;20450;-71
2021/11/25 01:06:06;;;;;;;19.23;13.00;;;;;;;2.36;100.00;102429.31;5133229;27;20202;-71
2021/11/25 01:08:33;;;;;;;13.70;9.60;;;;;;;2.36;100.00;102423.25;5132807;27;20227;-65
2021/11/25 01:10:58;;;;;;;16.70;10.80;;;;;;;2.32;100.00;102435.38;5133097;27;20189;-65
2021/11/25 01:13:24;;;;;;;23.70;10.77;;;;;;;2.32;100.00;102432.78;5133258;27;20404;-66
2021/11/25 01:15:50;;;;;;;13.60;8.00;;;;;;;2.30;100.00;102426.75;5133584;27;20176;-66
2021/11/25 01:18:17;;;;;;;21.93;11.30;;;;;;;2.23;100.00;102419.88;5132506;27;20167;-64
2021/11/25 01:20:45;;;;;;;18.17;10.23;;;;;;;2.17;100.00;102420.75;5114433;27;20174;-66
2021/11/25 01:23:13;;;;;;;17.33;10.60;;;;;;;2.16;100.00;102419.03;5132694;27;20502;-71
2021/11/25 01:25:39;;;;;;;18.53;10.70;;;;;;;2.14;100.00;102406.94;5132702;27;20461;-64
2021/11/25 01:28:12;;;;;;;17.00;8.77;;;;;;;2.13;100.00;102416.47;5132801;27;20391;-71
2021/11/25 01:30:38;;;;;;;12.20;7.90;;;;;;;2.14;100.00;102412.13;5132038;27;20473;-69
2021/11/25 01:33:03;;;;;;;17.50;8.73;;;;;;;2.15;100.00;102413.84;5132629;27;20786;-70
2021/11/25 01:35:29;;;;;;;17.23;10.30;;;;;;;2.17;100.00;102407.78;5131732;27;20931;-71
2021/11/25 01:37:54;;;;;;;21.23;10.10;;;;;;;2.21;100.00;102411.25;5132412;27;20166;-65
2021/11/25 01:40:20;;;;;;;13.00;6.90;;;;;;;2.23;100.00;102401.72;5132277;27;20174;-70
2021/11/25 01:42:46;;;;;;;13.87;7.00;;;;;;;2.14;100.00;102405.22;5132255;27;20162;-66
2021/11/25 01:45:12;;;;;;;12.37;7.50;;;;;;;2.08;100.00;102400.06;5131874;27;20415;-67
2021/11/25 01:47:42;;;;;;;21.13;11.23;;;;;;;2.05;100.00;102396.63;5131964;27;20215;-68
2021/11/25 01:50:08;;;;;;;22.60;11.20;;;;;;;2.04;100.00;102403.56;5132223;27;20447;-68
2021/11/25 01:52:33;;;;;;;20.17;11.90;;;;;;;2.00;100.00;102411.34;5132552;27;20811;-67
2021/11/25 01:54:58;;;;;;;19.23;11.20;;;;;;;1.92;100.00;102407.03;5131521;27;20841;-70
2021/11/25 01:57:24;;;;;;;18.77;8.70;;;;;;;1.91;100.00;102405.31;5131740;27;20155;-67
2021/11/25 01:59:50;;;;;;;25.90;10.20;;;;;;;1.92;100.00;102412.22;5132383;27;20162;-67
2021/11/25 02:02:15;;;;;;;28.23;15.60;;;;;;;1.84;100.00;102401.03;5132200;27;20215;-64
2021/11/25 02:04:41;;;;;;;23.70;15.07;;;;;;;1.81;100.00;102406.19;5131718;27;20262;-66
2021/11/25 02:07:07;;;;;;;31.30;17.27;;;;;;;1.81;100.00;102405.34;5132230;27;20700;-65
2021/11/25 02:09:32;;;;;;;22.50;14.70;;;;;;;1.80;100.00;102406.22;5132025;27;20194;-65
2021/11/25 02:11:58;;;;;;;26.13;16.20;;;;;;;1.81;100.00;102408.78;5131972;27;20173;-68
2021/11/25 02:14:23;;;;;;;24.10;14.13;;;;;;;1.82;100.00;102405.38;5132303;27;20180;-65
2021/11/25 02:16:50;;;;;;;23.40;16.00;;;;;;;1.81;100.00;102408.78;5131758;27;20668;-69
2021/11/25 02:19:16;;;;;;;9.87;6.03;;;;;;;1.80;100.00;102403.63;5131748;27;20664;-65
2021/11/25 02:21:42;;;;;;;26.23;17.10;;;;;;;1.73;100.00;102414.88;5131675;27;20411;-66
2021/11/25 02:24:08;;;;;;;26.43;18.00;;;;;;;1.67;100.00;102410.59;5132358;28;20392;-64
2021/11/25 02:26:34;;;;;;;29.30;18.00;;;;;;;1.66;100.00;102411.44;5131244;28;20515;-68
2021/11/25 02:28:59;;;;;;;31.13;19.03;;;;;;;1.61;100.00;102411.47;5131433;28;20684;-65
2021/11/25 02:31:25;;;;;;;24.03;15.90;;;;;;;1.64;100.00;102414.03;5130859;28;20563;-65
2021/11/25 02:33:50;;;;;;;18.03;9.90;;;;;;;1.66;100.00;102414.03;5131577;28;20151;-70
2021/11/25 02:36:16;;;;;;;26.30;15.10;;;;;;;1.64;100.00;102400.22;5131803;28;20254;-66
2021/11/25 02:38:44;;;;;;;23.10;12.27;;;;;;;1.56;100.00;102408.03;5131157;28;20206;-66
2021/11/25 02:41:10;;;;;;;19.13;10.10;;;;;;;1.56;100.00;102409.75;5131631;28;20799;-66
2021/11/25 02:43:36;;;;;;;24.70;13.67;;;;;;;1.48;100.00;102403.72;5131686;28;22341;-65
2021/11/25 02:46:08;;;;;;;24.90;13.53;;;;;;;1.47;100.00;102408.03;5132156;28;20437;-70
2021/11/25 02:48:49;;;;;;;21.23;12.50;;;;;;;1.46;100.00;102401.16;5131258;28;20412;-71
2021/11/25 02:51:20;;;;;;;28.23;12.60;;;;;;;1.49;100.00;102403.72;5130972;28;20422;-67
2021/11/25 02:53:47;;;;;;;10.03;5.20;;;;;;;1.51;100.00;102403.72;5131387;28;20404;-67
2021/11/25 02:56:22;;;;;;;23.10;13.63;;;;;;;1.46;100.00;102398.56;5131746;28;20392;-69
2021/11/25 02:58:49;;;;;;;25.43;15.27;;;;;;;1.43;100.00;102401.13;5131064;28;20411;-65
2021/11/25 03:01:24;;;;;;;23.23;11.90;;;;;;;1.43;100.00;102395.97;5131147;27;20504;-69
2021/11/25 03:03:50;;;;;;;24.20;14.77;;;;;;;1.39;100.00;102402.03;5119974;27;20411;-66
2021/11/25 03:06:17;;;;;;;17.60;10.20;;;;;;;1.40;100.00;102406.34;5135547;27;20427;-69
2021/11/25 03:08:43;;;;;;;25.80;15.30;;;;;;;1.36;100.00;102402.00;5135358;27;20423;-69
2021/11/25 03:11:12;;;;;;;25.37;13.30;;;;;;;1.35;100.00;102403.75;5135270;27;20431;-71
2021/11/25 03:13:41;;;;;;;19.47;11.80;;;;;;;1.36;100.00;102405.50;5135353;27;20781;-71
2021/11/25 03:16:09;;;;;;;25.80;13.87;;;;;;;1.34;100.00;102404.59;5135377;27;20950;-70
2021/11/25 03:18:35;;;;;;;17.60;11.70;;;;;;;1.34;100.00;102399.44;5135070;27;20404;-70
2021/11/25 03:21:01;;;;;;;18.80;8.27;;;;;;;1.34;100.00;102389.06;5135134;27;20411;-68
2021/11/25 03:23:29;;;;;;;23.97;12.90;;;;;;;1.29;100.00;102396.00;5134244;27;20675;-68
2021/11/25 03:25:56;;;;;;;27.33;14.13;;;;;;;1.27;100.00;102387.34;5117032;27;20179;-69
2021/11/25 03:28:22;;;;;;;25.23;13.00;;;;;;;1.30;100.00;102384.78;5134968;27;20408;-69
2021/11/25 03:30:54;;;;;;;17.47;10.80;;;;;;;1.30;100.00;102384.78;5151879;27;20474;-69
2021/11/25 03:33:30;;;;;;;29.00;15.13;;;;;;;1.22;100.00;102378.75;5129525;27;20439;-69
2021/11/25 03:35:57;;;;;;;27.17;15.27;;;;;;;1.18;100.00;102379.63;5114804;28;20919;-70
2021/11/25 03:38:23;;;;;;;28.00;14.80;;;;;;;1.18;100.00;102379.63;5131799;27;20945;-64
2021/11/25 03:40:49;;;;;;;27.23;15.70;;;;;;;1.18;100.00;102377.03;5134658;27;20404;-65
2021/11/25 03:43:15;;;;;;;31.73;14.50;;;;;;;1.18;100.00;102378.75;5134756;27;20194;-66
2021/11/25 03:45:40;;;;;;;30.00;11.77;;;;;;;1.19;100.00;102375.31;5133945;27;20412;-66
2021/11/25 03:48:07;;;;;;;25.13;16.07;;;;;;;1.14;100.00;102383.09;5133039;27;20792;-66
2021/11/25 03:50:33;;;;;;;25.53;15.93;;;;;;;1.13;100.00;102377.88;5134549;27;20193;-67
2021/11/25 03:52:58;;;;;;;36.43;17.37;;;;;;;1.08;100.00;102373.59;5134563;27;20434;-65
2021/11/25 03:55:24;;;;;;;33.93;15.70;;;;;;;1.10;100.00;102374.44;5134538;27;20408;-66
2021/11/25 03:57:50;;;;;;;29.60;13.47;;;;;;;1.15;100.00;102379.63;5133971;27;20612;-66
2021/11/25 04:00:19;;;;;;;32.33;16.77;;;;;;;1.19;100.00;102376.16;5133886;27;20287;-66
2021/11/25 04:02:46;;;;;;;35.10;17.40;;;;;;;1.09;100.00;102369.28;5133883;27;20170;-66
2021/11/25 04:05:13;;;;;;;32.47;19.17;;;;;;;1.06;100.00;102366.72;5133367;27;20966;-68
2021/11/25 04:07:39;;;;;;;26.27;15.90;;;;;;;1.09;100.00;102372.72;5134203;27;20508;-66
2021/11/25 04:10:07;;;;;;;34.87;17.70;;;;;;;1.08;100.00;102367.56;5133575;27;20963;-66
2021/11/25 04:12:32;;;;;;;30.77;16.50;;;;;;;1.08;100.00;102371.00;5130824;27;20174;-68
2021/11/25 04:14:58;;;;;;;33.30;19.70;;;;;;;1.08;100.00;102371.00;5134129;27;20427;-67
2021/11/25 04:17:24;;;;;;;13.93;9.63;;;;;;;1.13;100.00;102373.56;5134243;27;20166;-67
2021/11/25 04:19:50;;;;;;;28.23;13.83;;;;;;;1.14;100.00;102361.53;5127543;27;20171;-67
2021/11/25 04:22:19;;;;;;;24.93;13.90;;;;;;;1.14;100.00;102367.56;5115122;27;20190;-68
2021/11/25 04:24:44;;;;;;;31.80;16.67;;;;;;;1.12;100.00;102369.25;5095783;28;20557;-68
2021/11/25 04:27:10;;;;;;;30.33;16.70;;;;;;;1.08;100.00;102368.41;5113349;28;20413;-67
2021/11/25 04:29:38;;;;;;;21.27;11.80;;;;;;;1.10;100.00;102371.00;5125648;27;20194;-67
2021/11/25 04:35:48;;;;;;;51.03;27.07;;;;;;;1.09;100.00;102364.09;5113450;28;20803;-66
2021/11/25 04:37:43;;;;;;;46.63;25.20;;;;;;;1.10;100.00;102364.09;5113550;27;20502;-67
2021/11/25 04:40:10;;;;;;;44.13;25.03;;;;;;;1.05;100.00;102362.38;5133685;27;20401;-68
2021/11/25 04:42:36;;;;;;;60.60;30.83;;;;;;;1.04;100.00;102350.31;5133727;27;20393;-69
2021/11/25 04:45:01;;;;;;;48.77;25.07;;;;;;;1.06;100.00;102358.94;5133602;27;20404;-68
2021/11/25 04:47:27;;;;;;;42.13;25.27;;;;;;;0.98;100.00;102360.66;5133582;27;20187;-68
2021/11/25 04:49:52;;;;;;;39.77;23.10;;;;;;;1.02;100.00;102359.78;5133615;27;20678;-69
2021/11/25 04:52:18;;;;;;;39.33;21.10;;;;;;;0.98;100.00;102355.47;5133343;27;20189;-68
2021/11/25 04:54:43;;;;;;;26.83;14.47;;;;;;;0.96;100.00;102363.25;5133474;27;20150;-66
2021/11/25 04:57:10;;;;;;;16.17;8.83;;;;;;;0.96;100.00;102359.78;5133733;27;20561;-68
2021/11/25 04:59:35;;;;;;;32.10;18.20;;;;;;;0.94;100.00;102358.94;5133409;27;20179;-67
2021/11/25 05:02:01;;;;;;;33.83;18.13;;;;;;;0.90;100.00;102358.06;5133136;27;20868;-68
2021/11/25 05:04:26;;;;;;;34.73;17.77;;;;;;;0.91;100.00;102375.34;5132598;27;20191;-68
2021/11/25 05:06:52;;;;;;;31.23;17.40;;;;;;;0.96;100.00;102365.84;5133388;27;20162;-68
2021/11/25 05:09:18;;;;;;;37.27;20.47;;;;;;;0.96;100.00;102367.56;5133034;27;20196;-69
2021/11/25 05:11:44;;;;;;;27.27;14.47;;;;;;;0.95;100.00;102361.53;5133045;27;20562;-67
2021/11/25 05:14:09;;;;;;;35.27;21.30;;;;;;;1.01;100.00;102360.66;5132866;27;20967;-69
2021/11/25 05:16:35;;;;;;;26.83;16.50;;;;;;;1.00;100.00;102364.13;5132786;27;20404;-67
2021/11/25 05:19:00;;;;;;;26.37;13.97;;;;;;;1.03;100.00;102356.34;5153224;27;20200;-68
2021/11/25 05:21:26;;;;;;;28.83;13.47;;;;;;;1.07;100.00;102364.13;5147404;27;20172;-69
2021/11/25 05:23:51;;;;;;;31.63;16.17;;;;;;;1.03;100.00;102366.69;5151457;27;20170;-68
2021/11/25 05:26:17;;;;;;;25.60;10.77;;;;;;;1.00;100.00;102358.94;5132311;27;20563;-67
2021/11/25 05:28:43;;;;;;;28.27;15.23;;;;;;;1.00;100.00;102364.13;5132975;27;20618;-69
2021/11/25 05:31:09;;;;;;;29.87;17.93;;;;;;;0.97;100.00;102352.03;5132389;27;20210;-69
2021/11/25 05:33:35;;;;;;;34.63;19.77;;;;;;;1.02;100.00;102362.38;5133056;27;20821;-68
2021/11/25 05:36:00;;;;;;;34.37;18.53;;;;;;;1.06;100.00;102364.13;5132473;27;20170;-68
2021/11/25 05:38:26;;;;;;;40.57;19.10;;;;;;;1.03;100.00;102364.09;5129796;27;20817;-68
2021/11/25 05:40:51;;;;;;;31.07;18.23;;;;;;;1.07;100.00;102368.44;5128574;27;20154;-68
2021/11/25 05:43:17;;;;;;;24.60;12.00;;;;;;;1.10;100.00;102366.69;5132386;27;20613;-65
2021/11/25 05:45:43;;;;;;;35.87;19.10;;;;;;;1.13;100.00;102360.63;5132058;27;20159;-69
2021/11/25 05:48:08;;;;;;;31.67;15.50;;;;;;;1.18;100.00;102353.72;5136106;27;20189;-67
2021/11/25 05:50:34;;;;;;;26.13;15.07;;;;;;;1.24;100.00;102355.47;5146146;27;20186;-67
2021/11/25 05:53:00;;;;;;;27.33;14.63;;;;;;;1.30;100.00;102348.53;5141872;27;20161;-66
2021/11/25 05:55:29;;;;;;;31.43;17.93;;;;;;;1.36;100.00;102345.06;5139675;27;20285;-67
2021/11/25 05:57:55;;;;;;;26.17;14.50;;;;;;;1.41;100.00;102348.50;5115446;27;20163;-68
2021/11/25 06:00:21;;;;;;;19.73;11.60;;;;;;;1.46;100.00;102345.91;5114191;27;20489;-65
2021/11/25 06:02:48;;;;;;;31.23;17.83;;;;;;;1.51;100.00;102346.75;5132074;27;20915;-69
2021/11/25 06:05:16;;;;;;;31.67;17.23;;;;;;;1.59;100.00;102338.09;5131541;27;20182;-66
2021/11/25 06:07:45;;;;;;;29.40;17.33;;;;;;;1.60;100.00;102350.19;5131587;27;20426;-66
2021/11/25 06:10:12;;;;;;;25.80;13.97;;;;;;;1.66;100.00;102337.22;5131928;27;20448;-67
2021/11/25 06:12:38;;;;;;;42.37;19.80;;;;;;;1.73;100.00;102345.78;5132212;27;20847;-68
2021/11/25 06:15:05;;;;;;;40.53;20.17;;;;;;;1.83;100.00;102350.09;5131447;27;20409;-68
2021/11/25 06:17:30;;;;;;;22.60;12.23;;;;;;;1.85;100.00;102347.47;5131899;27;20975;-69
2021/11/25 06:19:56;;;;;;;54.53;25.17;;;;;;;1.87;100.00;102350.91;5132260;27;20396;-67
2021/11/25 06:22:22;;;;;;;59.70;30.70;;;;;;;1.93;100.00;102350.91;5131904;27;20165;-67
2021/11/25 06:24:48;;;;;;;30.07;19.87;;;;;;;1.99;100.00;102353.47;5131109;28;20154;-67
2021/11/25 06:27:14;;;;;;;46.10;26.97;;;;;;;1.99;100.00;102343.09;5131220;28;20400;-67
2021/11/25 06:29:39;;;;;;;61.07;32.43;;;;;;;2.02;100.00;102345.66;5132015;28;20198;-66
2021/11/25 06:32:05;;;;;;;57.33;32.10;;;;;;;2.07;100.00;102351.69;5144499;27;20246;-69
2021/11/25 06:34:31;;;;;;;50.17;28.67;;;;;;;2.14;100.00;102344.75;5130664;28;20516;-67
2021/11/25 06:36:56;;;;;;;58.00;26.63;;;;;;;2.17;100.00;102348.16;5133293;27;20192;-68
2021/11/25 06:39:22;;;;;;;36.67;20.67;;;;;;;2.23;100.00;102344.69;5135828;27;20161;-67
2021/11/25 06:41:48;;;;;;;38.87;19.77;;;;;;;2.21;100.00;102352.47;5135624;27;20162;-67
2021/11/25 06:44:13;;;;;;;28.23;14.13;;;;;;;2.27;100.00;102346.41;5135574;27;20169;-70
2021/11/25 06:46:39;;;;;;;39.83;22.73;;;;;;;2.35;100.00;102352.38;5135894;27;20388;-68
2021/11/25 06:49:04;;;;;;;46.37;25.47;;;;;;;2.49;100.00;102354.84;5135250;27;20537;-69
2021/11/25 06:51:30;;;;;;;41.43;22.37;;;;;;;2.63;100.00;102350.44;5119930;27;20197;-69
2021/11/25 06:53:56;;;;;;;37.53;22.93;;;;;;;2.72;100.00;102352.97;5135615;27;20151;-68
2021/11/25 06:56:22;;;;;;;39.97;21.33;;;;;;;2.77;100.00;102353.78;5133554;27;20417;-68
2021/11/25 06:58:50;;;;;;;36.63;23.50;;;;;;;2.86;100.00;102347.66;5134433;27;20256;-69
2021/11/25 07:01:15;;;;;;;48.87;28.30;;;;;;;3.01;100.00;102347.50;5140333;27;20429;-68
2021/11/25 07:03:41;;;;;;;51.83;26.20;;;;;;;3.15;100.00;102339.59;5155743;27;20391;-68
2021/11/25 07:06:07;;;;;;;43.53;22.87;;;;;;;3.37;100.00;102329.84;5154480;27;20166;-69
2021/11/25 07:08:32;;;;;;;43.17;25.80;;;;;;;3.42;100.00;102328.06;5135053;27;20184;-68
2021/11/25 07:10:58;;;;;;;44.20;24.60;;;;;;;3.52;100.00;102326.19;5134723;27;20718;-68
2021/11/25 07:13:26;;;;;;;48.05;26.60;;;;;;;3.61;100.00;102323.50;5135903;27;20409;-66
2021/11/25 07:15:51;;;;;;;40.20;24.10;;;;;;;3.78;100.00;102312.88;5155704;27;20561;-67
2021/11/25 07:18:17;;;;;;;49.73;24.90;;;;;;;3.80;100.00;102314.59;5139272;27;20422;-67
2021/11/25 07:20:42;;;;;;;35.63;21.40;;;;;;;3.89;100.00;102309.25;5134365;27;20623;-66
2021/11/25 07:23:08;;;;;;;50.40;26.58;;;;;;;3.94;100.00;102309.22;5134959;27;20434;-66
2021/11/25 07:25:33;;;;;;;47.53;30.45;;;;;;;3.99;100.00;102304.78;5133584;27;20869;-66
2021/11/25 07:27:59;;;;;;;49.60;28.80;;;;;;;4.09;100.00;102303.78;5135019;27;20178;-66
2021/11/25 07:30:24;;;;;;;46.70;27.57;;;;;;;4.22;100.00;102303.59;5134450;27;20221;-67
2021/11/25 07:32:50;;;;;;;53.10;29.20;;;;;;;4.35;100.00;102305.13;5134855;27;20162;-66
2021/11/25 07:35:19;;;;;;;55.53;32.90;;;;;;;4.54;100.00;102296.16;5134115;27;20445;-66
2021/11/25 07:37:46;;;;;;;48.17;27.50;;;;;;;4.76;100.00;102301.88;5134306;27;20171;-67
2021/11/25 07:40:11;;;;;;;44.07;25.93;;;;;;;4.91;100.00;102298.09;5134341;27;20404;-66
2021/11/25 07:42:37;;;;;;;41.40;25.90;;;;;;;4.96;100.00;102293.69;5134679;27;20412;-66
2021/11/25 07:45:04;;;;;;;42.60;24.07;;;;;;;4.93;100.00;102297.22;5124921;27;20219;-67
2021/11/25 07:47:32;;;;;;;43.70;26.92;;;;;;;5.06;100.00;102296.97;5132682;27;20417;-67
2021/11/25 07:50:03;;;;;;;44.77;25.87;;;;;;;5.25;100.00;102294.00;5133628;27;20230;-66
2021/11/25 07:52:29;;;;;;;46.10;26.90;;;;;;;5.43;100.00;102291.91;5132721;27;20405;-67
2021/11/25 07:54:54;;;;;;;39.60;25.17;;;;;;;5.61;100.00;102288.06;5132380;27;20186;-69
2021/11/25 07:57:20;;;;;;;45.03;22.77;;;;;;;5.80;100.00;102277.19;5134237;27;20158;-67
2021/11/25 07:59:45;;;;;;;35.10;21.57;;;;;;;5.89;100.00;102286.56;5135996;27;20224;-66
2021/11/25 08:02:11;;;;;;;31.80;20.20;;;;;;;5.90;100.00;102279.63;5115602;27;20522;-67
2021/11/25 08:04:36;;;;;;;33.67;22.10;;;;;;;6.08;100.00;102276.63;5147190;27;20228;-66
2021/11/25 08:07:02;;;;;;;42.42;25.35;;;;;;;6.21;100.00;102277.19;5138473;27;20417;-65
2021/11/25 08:09:27;;;;;;;36.50;22.50;;;;;;;6.33;100.00;102282.09;5133803;27;20665;-66
2021/11/25 08:11:53;;;;;;;34.33;21.10;;;;;;;6.40;100.00;102276.69;5134364;27;20174;-67
2021/11/25 08:14:19;;;;;;;38.17;20.70;;;;;;;6.55;100.00;102266.78;5133988;27;20272;-66
2021/11/25 08:16:44;;;;;;;39.93;21.70;;;;;;;6.71;100.00;102273.31;5132647;27;20420;-69
2021/11/25 08:19:10;;;;;;;33.27;21.53;;;;;;;6.91;100.00;102275.41;5115111;27;20258;-69
2021/11/25 08:21:35;;;;;;;33.60;20.23;;;;;;;7.13;100.00;102270.47;5133937;27;20215;-67
2021/11/25 08:24:01;;;;;;;39.20;21.60;;;;;;;7.34;100.00;102267.25;5133996;27;20155;-66
2021/11/25 08:26:26;;;;;;;38.83;22.73;;;;;;;7.35;100.00;102265.50;5133384;27;20598;-64
2021/11/25 08:28:52;;;;;;;39.10;21.40;;;;;;;7.31;100.00;102261.25;5133586;27;20189;-65
2021/11/25 08:31:17;;;;;;;39.10;22.10;;;;;;;7.33;100.00;102262.94;5114619;27;20245;-70
2021/11/25 08:33:43;;;;;;;35.23;18.13;;;;;;;7.41;100.00;102254.88;5131970;27;20167;-64
2021/11/25 08:36:09;;;;;;;32.20;18.03;;;;;;;7.51;100.00;102254.53;5133198;27;20161;-65
2021/11/25 08:38:34;;;;;;;28.63;16.53;;;;;;;7.48;100.00;102245.91;5133015;27;20215;-64
2021/11/25 08:41:03;;;;;;;26.93;16.17;;;;;;;7.61;100.00;102247.25;5133043;27;20689;-64
2021/11/25 08:43:28;;;;;;;22.30;15.37;;;;;;;7.81;100.00;102230.97;5132357;27;20162;-63
2021/11/25 08:45:54;;;;;;;18.00;12.20;;;;;;;7.92;100.00;102228.00;5132206;27;20413;-63
2021/11/25 08:48:20;;;;;;;20.53;12.17;;;;;;;8.02;100.00;102221.59;5132409;27;20162;-64
2021/11/25 08:50:47;;;;;;;38.58;14.23;;;;;;;8.08;100.00;102221.38;5130975;27;20425;-64
2021/11/25 08:53:12;;;;;;;22.67;12.70;;;;;;;8.29;100.00;102227.69;5131239;27;20409;-65
2021/11/25 08:55:38;;;;;;;14.00;8.23;;;;;;;8.42;100.00;102215.91;5131757;27;20772;-63
2021/11/25 08:58:05;;;;;;;11.00;6.20;;;;;;;8.48;100.00;102210.47;5132038;27;20396;-64
2021/11/25 09:00:33;;;;;;;9.60;5.60;;;;;;;8.66;100.00;102202.88;5129637;27;20441;-64
2021/11/25 09:02:59;;;;;;;62.17;55.53;;;;;;;8.83;100.00;102196.13;5130325;27;20454;-64
2021/11/25 09:05:25;;;;;;;9.30;5.38;;;;;;;8.84;100.00;102197.88;5112667;27;20311;-64
2021/11/25 09:07:51;;;;;;;10.30;5.23;;;;;;;8.93;100.00;102194.03;5118506;27;20409;-64
2021/11/25 09:10:16;;;;;;;8.33;5.20;;;;;;;9.28;100.00;102187.47;5131644;27;20554;-60
2021/11/25 09:12:42;;;;;;;12.20;6.03;;;;;;;9.58;100.00;102180.19;5132047;27;20174;-62
2021/11/25 09:15:08;;;;;;;9.47;6.23;;;;;;;9.86;100.00;102181.72;5131728;27;20171;-61
2021/11/25 09:17:35;;;;;;;9.40;5.20;;;;;;;10.50;100.00;102165.91;5131916;27;20699;-61
2021/11/25 09:20:02;;;;;;;9.83;5.87;;;;;;;11.12;100.00;102157.00;5131293;27;20400;-61
2021/11/25 09:22:28;;;;;;;9.40;5.60;;;;;;;11.48;100.00;102156.19;5132087;27;20979;-63
2021/11/25 09:24:53;;;;;;;12.57;5.27;;;;;;;11.78;100.00;102153.84;5131100;27;20495;-61
2021/11/25 09:27:19;;;;;;;12.07;4.10;;;;;;;12.40;100.00;102153.38;5131993;27;20162;-64
2021/11/25 09:29:44;;;;;;;8.93;4.47;;;;;;;13.69;100.00;102138.50;5131417;27;20657;-61
2021/11/25 09:32:10;;;;;;;5.70;3.10;;;;;;;13.00;100.00;102134.38;5131986;27;20223;-61
2021/11/25 09:34:36;;;;;;;9.57;4.40;;;;;;;13.69;100.00;102138.50;5131591;27;20563;-62
2021/11/25 09:37:01;;;;;;;10.00;3.43;;;;;;;14.82;100.00;102123.81;5130943;27;20865;-63
2021/11/25 09:39:27;;;;;;;6.50;3.37;;;;;;;15.57;100.00;102114.56;5131484;27;20626;-62
2021/11/25 09:41:54;;;;;;;6.53;3.50;;;;;;;15.72;100.00;102110.91;5125954;27;20239;-62
2021/11/25 09:44:21;;;;;;;5.13;2.60;;;;;;;16.35;98.15;102106.66;5118992;27;20203;-63
2021/11/25 09:46:52;;;;;;;6.50;3.00;;;;;;;16.64;92.99;102108.13;5131284;27;20575;-63
2021/11/25 09:49:20;;;;;;;8.07;2.70;;;;;;;17.94;85.42;102101.31;5130878;27;20971;-61
2021/11/25 09:51:46;;;;;;;5.37;2.50;;;;;;;16.65;85.84;102109.81;5131061;27;20392;-63
2021/11/25 09:54:12;;;;;;;6.00;2.90;;;;;;;16.74;92.67;102104.84;5117703;27;20491;-63
2021/11/25 09:56:37;;;;;;;6.22;3.28;;;;;;;16.50;87.35;102102.94;5129850;27;20409;-63
2021/11/25 09:59:03;;;;;;;6.17;3.73;;;;;;;16.32;92.49;102105.06;5130727;27;20223;-64
2021/11/25 10:01:28;;;;;;;6.57;3.57;;;;;;;16.00;94.08;102099.28;5130985;27;20165;-62
2021/11/25 10:03:54;;;;;;;6.50;3.20;;;;;;;15.03;100.00;102101.25;5129496;27;20592;-63
2021/11/25 10:06:32;;;;;;;6.43;3.10;;;;;;;15.21;100.00;102096.59;5129654;27;20531;-64
2021/11/25 10:08:58;;;;;;;5.83;2.90;;;;;;;13.88;100.00;102107.41;5132765;27;20798;-64
2021/11/25 10:11:33;;;;;;;4.67;2.63;;;;;;;13.88;100.00;102110.03;5131458;27;20858;-64
2021/11/25 10:14:02;;;;;;;6.77;3.00;;;;;;;13.38;100.00;102111.19;5139799;27;20172;-62
2021/11/25 10:16:35;;;;;;;5.97;3.20;;;;;;;12.52;100.00;102103.56;5122648;27;20412;-64
2021/11/25 10:19:23;;;;;;;6.77;3.50;;;;;;;12.48;100.00;102101.09;5129937;27;20491;-62
2021/11/25 10:21:53;;;;;;;7.93;3.67;;;;;;;13.31;100.00;102105.41;5130103;27;20400;-64
2021/11/25 10:24:35;;;;;;;7.33;3.77;;;;;;;13.69;100.00;102104.16;5130358;27;20408;-62
2021/11/25 10:27:27;;;;;;;8.23;3.70;;;;;;;12.78;100.00;102097.78;5116579;28;20419;-64
2021/11/25 10:30:16;;;;;;;7.93;3.73;;;;;;;11.97;100.00;102107.28;5129851;28;20447;-64
2021/11/25 10:32:56;;;;;;;9.00;4.50;;;;;;;12.20;100.00;102103.47;5129641;28;20404;-62
2021/11/25 10:35:28;;;;;;;10.07;4.97;;;;;;;13.43;100.00;102081.84;5130742;28;20922;-62
2021/11/25 10:40:26;;;;;;;6.27;3.40;;;;;;;14.73;100.00;102067.00;5129998;28;20419;-65
2021/11/25 10:42:51;;;;;;;7.43;4.70;;;;;;;14.12;100.00;102068.09;5129295;28;20983;-63
2021/11/25 10:45:19;;;;;;;7.60;3.93;;;;;;;14.33;100.00;102058.88;5129722;28;20483;-64
2021/11/25 10:47:59;;;;;;;6.10;3.97;;;;;;;14.92;100.00;102050.81;5128939;28;20163;-62
2021/11/25 10:50:26;;;;;;;7.20;3.80;;;;;;;15.99;100.00;102046.38;5129501;28;20508;-64
2021/11/25 10:52:53;;;;;;;5.53;3.13;;;;;;;16.33;100.00;102048.41;5129638;28;20400;-63
2021/11/25 10:55:23;;;;;;;5.50;3.00;;;;;;;17.05;96.86;102037.97;5130248;27;20454;-65
2021/11/25 10:58:02;;;;;;;9.20;4.00;;;;;;;17.65;92.85;102030.84;5129913;28;20415;-63
2021/11/25 11:00:36;;;;;;;5.87;3.43;;;;;;;18.92;79.34;102021.75;5129643;28;20788;-63
2021/11/25 11:03:05;;;;;;;8.50;2.77;;;;;;;19.85;72.46;102011.28;5129779;28;20447;-64
2021/11/25 11:05:52;;;;;;;7.00;3.70;;;;;;;19.89;69.68;102007.38;5129836;28;20442;-65
2021/11/25 11:08:19;;;;;;;7.23;3.13;;;;;;;18.28;74.43;102013.56;5105130;28;20443;-64
2021/11/25 11:11:04;;;;;;;5.60;2.67;;;;;;;16.72;84.84;102025.34;5127316;28;20504;-63
2021/11/25 11:13:49;;;;;;;10.23;5.20;;;;;;;14.49;100.00;102029.69;5120915;28;20408;-62
2021/11/25 11:18:56;;;;;;;6.97;4.30;;;;;;;14.20;100.00;102028.81;5129937;28;20380;-64